sensor_id;sensor_type;location;lat;lon;timestamp;P1;durP1;ratioP1;P2;durP2;ratioP2
19278;SDS011;9773;47.062;15.446;2023-09-07T00:00:22;4.80;;;4.50;;
19278;SDS011;9773;47.062;15.446;2023-09-07T00:02:49;4.80;;;4.40;;
19278;SDS011;9773;47.062;15.446;2023-09-07T00:05:15;5.40;;;4.90;;
19278;SDS011;9773;47.062;15.446;2023-09-07T00:07:40;5.37;;;4.57;;
19278;SDS011;9773;47.062;15.446;2023-09-07T00:10:07;5.10;;;4.60;;
19278;SDS011;9773;47.062;15.446;2023-09-07T00:12:33;4.60;;;4.30;;
19278;SDS011;9773;47.062;15.446;2023-09-07T00:14:59;4.47;;;4.17;;
19278;SDS011;9773;47.062;15.446;2023-09-07T00:17:25;4.73;;;4.33;;
19278;SDS011;9773;47.062;15.446;2023-09-07T00:19:51;5.07;;;4.60;;
19278;SDS011;9773;47.062;15.446;2023-09-07T00:22:17;4.90;;;4.60;;
19278;SDS011;9773;47.062;15.446;2023-09-07T00:24:45;4.67;;;4.27;;
19278;SDS011;9773;47.062;15.446;2023-09-07T00:27:11;4.37;;;4.07;;
19278;SDS011;9773;47.062;15.446;2023-09-07T00:29:39;4.73;;;4.33;;
19278;SDS011;9773;47.062;15.446;2023-09-07T00:32:05;4.90;;;4.60;;
19278;SDS011;9773;47.062;15.446;2023-09-07T00:34:31;4.77;;;4.27;;
19278;SDS011;9773;47.062;15.446;2023-09-07T00:36:58;5.03;;;4.67;;
19278;SDS011;9773;47.062;15.446;2023-09-07T00:39:25;4.43;;;4.13;;
19278;SDS011;9773;47.062;15.446;2023-09-07T00:41:51;4.40;;;4.10;;
19278;SDS011;9773;47.062;15.446;2023-09-07T00:44:17;4.50;;;4.13;;
19278;SDS011;9773;47.062;15.446;2023-09-07T00:46:43;4.90;;;4.40;;
19278;SDS011;9773;47.062;15.446;2023-09-07T00:49:10;4.80;;;4.40;;
19278;SDS011;9773;47.062;15.446;2023-09-07T00:51:39;4.53;;;4.20;;
19278;SDS011;9773;47.062;15.446;2023-09-07T00:54:05;5.10;;;4.47;;
19278;SDS011;9773;47.062;15.446;2023-09-07T00:56:31;4.57;;;4.17;;
19278;SDS011;9773;47.062;15.446;2023-09-07T00:58:57;4.77;;;4.43;;
19278;SDS011;9773;47.062;15.446;2023-09-07T01:01:26;4.70;;;4.30;;
19278;SDS011;9773;47.062;15.446;2023-09-07T01:03:52;4.90;;;4.53;;
19278;SDS011;9773;47.062;15.446;2023-09-07T01:06:25;4.63;;;4.33;;
19278;SDS011;9773;47.062;15.446;2023-09-07T01:08:54;4.90;;;4.50;;
19278;SDS011;9773;47.062;15.446;2023-09-07T01:11:22;4.63;;;4.33;;
19278;SDS011;9773;47.062;15.446;2023-09-07T01:13:51;4.73;;;4.40;;
19278;SDS011;9773;47.062;15.446;2023-09-07T01:16:19;4.90;;;4.50;;
19278;SDS011;9773;47.062;15.446;2023-09-07T01:18:45;6.77;;;5.83;;
19278;SDS011;9773;47.062;15.446;2023-09-07T01:21:12;4.80;;;4.40;;
19278;SDS011;9773;47.062;15.446;2023-09-07T01:23:40;4.97;;;4.67;;
19278;SDS011;9773;47.062;15.446;2023-09-07T01:26:08;5.37;;;4.40;;
19278;SDS011;9773;47.062;15.446;2023-09-07T01:28:35;6.40;;;4.50;;
19278;SDS011;9773;47.062;15.446;2023-09-07T01:31:02;5.10;;;4.70;;
19278;SDS011;9773;47.062;15.446;2023-09-07T01:33:28;4.87;;;4.33;;
19278;SDS011;9773;47.062;15.446;2023-09-07T01:35:54;5.00;;;4.67;;
19278;SDS011;9773;47.062;15.446;2023-09-07T01:38:19;5.03;;;4.63;;
19278;SDS011;9773;47.062;15.446;2023-09-07T01:40:45;5.17;;;4.73;;
19278;SDS011;9773;47.062;15.446;2023-09-07T01:43:11;6.33;;;4.87;;
19278;SDS011;9773;47.062;15.446;2023-09-07T01:45:37;4.70;;;4.40;;
19278;SDS011;9773;47.062;15.446;2023-09-07T01:48:05;5.23;;;4.83;;
19278;SDS011;9773;47.062;15.446;2023-09-07T01:50:36;5.20;;;4.80;;
19278;SDS011;9773;47.062;15.446;2023-09-07T01:53:02;5.13;;;4.73;;
19278;SDS011;9773;47.062;15.446;2023-09-07T01:55:31;5.93;;;4.90;;
19278;SDS011;9773;47.062;15.446;2023-09-07T01:57:57;5.33;;;4.90;;
19278;SDS011;9773;47.062;15.446;2023-09-07T02:00:23;5.20;;;4.73;;
19278;SDS011;9773;47.062;15.446;2023-09-07T02:02:49;5.47;;;4.63;;
19278;SDS011;9773;47.062;15.446;2023-09-07T02:05:14;5.03;;;4.53;;
19278;SDS011;9773;47.062;15.446;2023-09-07T02:07:41;6.40;;;4.93;;
19278;SDS011;9773;47.062;15.446;2023-09-07T02:10:07;5.20;;;4.70;;
19278;SDS011;9773;47.062;15.446;2023-09-07T02:12:33;6.43;;;5.30;;
19278;SDS011;9773;47.062;15.446;2023-09-07T02:15:00;5.57;;;5.07;;
19278;SDS011;9773;47.062;15.446;2023-09-07T02:17:28;5.17;;;4.77;;
19278;SDS011;9773;47.062;15.446;2023-09-07T02:19:56;5.37;;;4.83;;
19278;SDS011;9773;47.062;15.446;2023-09-07T02:22:22;5.13;;;4.73;;
19278;SDS011;9773;47.062;15.446;2023-09-07T02:24:48;5.53;;;5.13;;
19278;SDS011;9773;47.062;15.446;2023-09-07T02:27:15;5.27;;;4.87;;
19278;SDS011;9773;47.062;15.446;2023-09-07T02:29:41;4.90;;;4.50;;
19278;SDS011;9773;47.062;15.446;2023-09-07T02:32:06;4.87;;;4.57;;
19278;SDS011;9773;47.062;15.446;2023-09-07T02:34:34;5.37;;;4.97;;
19278;SDS011;9773;47.062;15.446;2023-09-07T02:37:01;6.23;;;5.10;;
19278;SDS011;9773;47.062;15.446;2023-09-07T02:39:27;5.57;;;5.07;;
19278;SDS011;9773;47.062;15.446;2023-09-07T02:41:53;5.70;;;4.60;;
19278;SDS011;9773;47.062;15.446;2023-09-07T02:44:19;5.07;;;4.67;;
19278;SDS011;9773;47.062;15.446;2023-09-07T02:46:45;8.00;;;5.40;;
19278;SDS011;9773;47.062;15.446;2023-09-07T02:49:11;5.67;;;5.17;;
19278;SDS011;9773;47.062;15.446;2023-09-07T02:51:37;5.97;;;5.43;;
19278;SDS011;9773;47.062;15.446;2023-09-07T02:54:04;7.47;;;4.83;;
19278;SDS011;9773;47.062;15.446;2023-09-07T02:56:30;5.30;;;4.90;;
19278;SDS011;9773;47.062;15.446;2023-09-07T02:58:56;5.40;;;4.97;;
19278;SDS011;9773;47.062;15.446;2023-09-07T03:01:22;5.20;;;4.80;;
19278;SDS011;9773;47.062;15.446;2023-09-07T03:03:47;4.87;;;4.53;;
19278;SDS011;9773;47.062;15.446;2023-09-07T03:06:14;5.30;;;4.90;;
19278;SDS011;9773;47.062;15.446;2023-09-07T03:08:46;5.13;;;4.73;;
19278;SDS011;9773;47.062;15.446;2023-09-07T03:11:12;5.50;;;5.03;;
19278;SDS011;9773;47.062;15.446;2023-09-07T03:13:38;5.67;;;5.20;;
19278;SDS011;9773;47.062;15.446;2023-09-07T03:16:04;5.40;;;4.90;;
19278;SDS011;9773;47.062;15.446;2023-09-07T03:18:31;5.70;;;5.20;;
19278;SDS011;9773;47.062;15.446;2023-09-07T03:20:58;5.50;;;5.00;;
19278;SDS011;9773;47.062;15.446;2023-09-07T03:23:26;5.97;;;5.27;;
19278;SDS011;9773;47.062;15.446;2023-09-07T03:25:53;5.73;;;5.23;;
19278;SDS011;9773;47.062;15.446;2023-09-07T03:28:18;5.23;;;4.87;;
19278;SDS011;9773;47.062;15.446;2023-09-07T03:30:44;5.33;;;4.83;;
19278;SDS011;9773;47.062;15.446;2023-09-07T03:33:10;6.17;;;5.30;;
19278;SDS011;9773;47.062;15.446;2023-09-07T03:35:36;5.60;;;5.10;;
19278;SDS011;9773;47.062;15.446;2023-09-07T03:38:02;5.37;;;4.97;;
19278;SDS011;9773;47.062;15.446;2023-09-07T03:40:28;5.60;;;5.10;;
19278;SDS011;9773;47.062;15.446;2023-09-07T03:42:54;5.73;;;4.70;;
19278;SDS011;9773;47.062;15.446;2023-09-07T03:45:20;5.67;;;4.97;;
19278;SDS011;9773;47.062;15.446;2023-09-07T03:47:45;6.17;;;5.67;;
19278;SDS011;9773;47.062;15.446;2023-09-07T03:50:11;6.97;;;5.37;;
19278;SDS011;9773;47.062;15.446;2023-09-07T03:52:37;6.40;;;5.73;;
19278;SDS011;9773;47.062;15.446;2023-09-07T03:55:03;5.53;;;5.13;;
19278;SDS011;9773;47.062;15.446;2023-09-07T03:57:29;5.53;;;5.10;;
19278;SDS011;9773;47.062;15.446;2023-09-07T03:59:55;14.93;;;5.20;;
19278;SDS011;9773;47.062;15.446;2023-09-07T04:02:22;6.40;;;5.77;;
19278;SDS011;9773;47.062;15.446;2023-09-07T04:04:49;6.57;;;5.47;;
19278;SDS011;9773;47.062;15.446;2023-09-07T04:07:15;5.57;;;5.07;;
19278;SDS011;9773;47.062;15.446;2023-09-07T04:09:41;5.93;;;5.23;;
19278;SDS011;9773;47.062;15.446;2023-09-07T04:12:08;6.07;;;5.57;;
19278;SDS011;9773;47.062;15.446;2023-09-07T04:14:34;5.83;;;5.30;;
19278;SDS011;9773;47.062;15.446;2023-09-07T04:17:00;5.47;;;4.97;;
19278;SDS011;9773;47.062;15.446;2023-09-07T04:19:26;5.53;;;5.13;;
19278;SDS011;9773;47.062;15.446;2023-09-07T04:21:52;5.80;;;5.20;;
19278;SDS011;9773;47.062;15.446;2023-09-07T04:24:18;6.63;;;5.43;;
19278;SDS011;9773;47.062;15.446;2023-09-07T04:26:44;6.43;;;5.20;;
19278;SDS011;9773;47.062;15.446;2023-09-07T04:29:10;5.43;;;4.93;;
19278;SDS011;9773;47.062;15.446;2023-09-07T04:31:39;6.23;;;5.33;;
19278;SDS011;9773;47.062;15.446;2023-09-07T04:34:05;5.67;;;5.17;;
19278;SDS011;9773;47.062;15.446;2023-09-07T04:36:30;6.10;;;5.60;;
19278;SDS011;9773;47.062;15.446;2023-09-07T04:38:56;6.20;;;5.60;;
19278;SDS011;9773;47.062;15.446;2023-09-07T04:41:22;6.07;;;5.47;;
19278;SDS011;9773;47.062;15.446;2023-09-07T04:43:48;5.90;;;5.40;;
19278;SDS011;9773;47.062;15.446;2023-09-07T04:46:14;6.20;;;5.60;;
19278;SDS011;9773;47.062;15.446;2023-09-07T04:48:42;5.83;;;5.40;;
19278;SDS011;9773;47.062;15.446;2023-09-07T04:51:09;5.53;;;5.13;;
19278;SDS011;9773;47.062;15.446;2023-09-07T04:53:36;6.03;;;5.43;;
19278;SDS011;9773;47.062;15.446;2023-09-07T04:56:03;5.87;;;5.37;;
19278;SDS011;9773;47.062;15.446;2023-09-07T04:58:29;5.30;;;4.90;;
19278;SDS011;9773;47.062;15.446;2023-09-07T05:01:08;6.33;;;5.73;;
19278;SDS011;9773;47.062;15.446;2023-09-07T05:03:36;6.17;;;5.23;;
19278;SDS011;9773;47.062;15.446;2023-09-07T05:06:03;7.93;;;5.60;;
19278;SDS011;9773;47.062;15.446;2023-09-07T05:08:29;5.87;;;5.10;;
19278;SDS011;9773;47.062;15.446;2023-09-07T05:10:55;5.97;;;5.37;;
19278;SDS011;9773;47.062;15.446;2023-09-07T05:13:23;5.70;;;5.20;;
19278;SDS011;9773;47.062;15.446;2023-09-07T05:15:49;5.70;;;5.20;;
19278;SDS011;9773;47.062;15.446;2023-09-07T05:18:16;6.83;;;5.13;;
19278;SDS011;9773;47.062;15.446;2023-09-07T05:20:42;8.23;;;5.90;;
19278;SDS011;9773;47.062;15.446;2023-09-07T05:23:11;6.03;;;5.50;;
19278;SDS011;9773;47.062;15.446;2023-09-07T05:25:44;5.90;;;5.40;;
19278;SDS011;9773;47.062;15.446;2023-09-07T05:28:12;6.13;;;5.63;;
19278;SDS011;9773;47.062;15.446;2023-09-07T05:30:40;6.73;;;5.87;;
19278;SDS011;9773;47.062;15.446;2023-09-07T05:33:08;7.90;;;5.40;;
19278;SDS011;9773;47.062;15.446;2023-09-07T05:35:39;6.33;;;5.27;;
19278;SDS011;9773;47.062;15.446;2023-09-07T05:38:05;7.40;;;5.20;;
19278;SDS011;9773;47.062;15.446;2023-09-07T05:40:34;6.30;;;5.80;;
19278;SDS011;9773;47.062;15.446;2023-09-07T05:43:04;5.73;;;5.13;;
19278;SDS011;9773;47.062;15.446;2023-09-07T05:45:31;6.87;;;5.97;;
19278;SDS011;9773;47.062;15.446;2023-09-07T05:48:07;5.83;;;5.33;;
19278;SDS011;9773;47.062;15.446;2023-09-07T05:50:36;6.07;;;5.57;;
19278;SDS011;9773;47.062;15.446;2023-09-07T05:53:03;5.67;;;5.17;;
19278;SDS011;9773;47.062;15.446;2023-09-07T05:55:29;7.30;;;5.50;;
19278;SDS011;9773;47.062;15.446;2023-09-07T05:57:56;5.10;;;4.70;;
19278;SDS011;9773;47.062;15.446;2023-09-07T06:00:22;5.93;;;5.33;;
19278;SDS011;9773;47.062;15.446;2023-09-07T06:02:48;5.23;;;4.93;;
19278;SDS011;9773;47.062;15.446;2023-09-07T06:05:14;5.90;;;5.17;;
19278;SDS011;9773;47.062;15.446;2023-09-07T06:07:41;6.03;;;5.43;;
19278;SDS011;9773;47.062;15.446;2023-09-07T06:10:07;5.37;;;4.90;;
19278;SDS011;9773;47.062;15.446;2023-09-07T06:12:33;5.77;;;5.27;;
19278;SDS011;9773;47.062;15.446;2023-09-07T06:14:59;5.57;;;5.17;;
19278;SDS011;9773;47.062;15.446;2023-09-07T06:17:27;5.30;;;4.90;;
19278;SDS011;9773;47.062;15.446;2023-09-07T06:19:53;5.10;;;4.70;;
19278;SDS011;9773;47.062;15.446;2023-09-07T06:22:20;7.07;;;5.00;;
19278;SDS011;9773;47.062;15.446;2023-09-07T06:24:46;5.67;;;4.93;;
19278;SDS011;9773;47.062;15.446;2023-09-07T06:27:11;7.50;;;5.27;;
19278;SDS011;9773;47.062;15.446;2023-09-07T06:29:37;6.17;;;4.50;;
19278;SDS011;9773;47.062;15.446;2023-09-07T06:32:04;5.73;;;5.13;;
19278;SDS011;9773;47.062;15.446;2023-09-07T06:34:30;5.10;;;4.70;;
19278;SDS011;9773;47.062;15.446;2023-09-07T06:36:55;5.17;;;4.73;;
19278;SDS011;9773;47.062;15.446;2023-09-07T06:39:21;5.20;;;4.80;;
19278;SDS011;9773;47.062;15.446;2023-09-07T06:41:47;4.97;;;4.57;;
19278;SDS011;9773;47.062;15.446;2023-09-07T06:44:14;4.97;;;4.57;;
19278;SDS011;9773;47.062;15.446;2023-09-07T06:46:40;5.30;;;4.80;;
19278;SDS011;9773;47.062;15.446;2023-09-07T06:49:06;5.27;;;4.70;;
19278;SDS011;9773;47.062;15.446;2023-09-07T06:51:33;5.40;;;4.90;;
19278;SDS011;9773;47.062;15.446;2023-09-07T06:53:58;4.97;;;4.53;;
19278;SDS011;9773;47.062;15.446;2023-09-07T06:56:25;4.87;;;4.47;;
19278;SDS011;9773;47.062;15.446;2023-09-07T06:58:51;5.57;;;5.10;;
19278;SDS011;9773;47.062;15.446;2023-09-07T07:01:18;5.20;;;4.80;;
19278;SDS011;9773;47.062;15.446;2023-09-07T07:03:45;5.53;;;4.90;;
19278;SDS011;9773;47.062;15.446;2023-09-07T07:06:11;5.30;;;4.77;;
19278;SDS011;9773;47.062;15.446;2023-09-07T07:08:37;5.47;;;4.73;;
19278;SDS011;9773;47.062;15.446;2023-09-07T07:11:03;4.97;;;4.47;;
19278;SDS011;9773;47.062;15.446;2023-09-07T07:13:28;5.20;;;4.87;;
19278;SDS011;9773;47.062;15.446;2023-09-07T07:15:54;5.47;;;4.70;;
19278;SDS011;9773;47.062;15.446;2023-09-07T07:18:20;4.93;;;4.53;;
19278;SDS011;9773;47.062;15.446;2023-09-07T07:20:46;4.53;;;4.13;;
19278;SDS011;9773;47.062;15.446;2023-09-07T07:23:11;4.70;;;4.30;;
19278;SDS011;9773;47.062;15.446;2023-09-07T07:25:40;5.43;;;4.97;;
19278;SDS011;9773;47.062;15.446;2023-09-07T07:28:06;5.00;;;4.60;;
19278;SDS011;9773;47.062;15.446;2023-09-07T07:30:35;5.70;;;4.77;;
19278;SDS011;9773;47.062;15.446;2023-09-07T07:33:03;5.10;;;4.60;;
19278;SDS011;9773;47.062;15.446;2023-09-07T07:35:30;4.87;;;4.57;;
19278;SDS011;9773;47.062;15.446;2023-09-07T07:37:56;4.70;;;4.30;;
19278;SDS011;9773;47.062;15.446;2023-09-07T07:40:22;5.43;;;4.57;;
19278;SDS011;9773;47.062;15.446;2023-09-07T07:42:47;4.77;;;4.47;;
19278;SDS011;9773;47.062;15.446;2023-09-07T07:45:16;6.60;;;6.07;;
19278;SDS011;9773;47.062;15.446;2023-09-07T07:47:45;5.27;;;4.77;;
19278;SDS011;9773;47.062;15.446;2023-09-07T07:50:11;6.07;;;5.30;;
19278;SDS011;9773;47.062;15.446;2023-09-07T07:52:37;7.27;;;4.83;;
19278;SDS011;9773;47.062;15.446;2023-09-07T07:55:03;5.60;;;5.20;;
19278;SDS011;9773;47.062;15.446;2023-09-07T07:57:29;5.10;;;4.70;;
19278;SDS011;9773;47.062;15.446;2023-09-07T07:59:56;5.40;;;4.90;;
19278;SDS011;9773;47.062;15.446;2023-09-07T08:02:22;5.13;;;4.63;;
19278;SDS011;9773;47.062;15.446;2023-09-07T08:04:48;4.03;;;3.80;;
19278;SDS011;9773;47.062;15.446;2023-09-07T08:07:13;4.13;;;3.90;;
19278;SDS011;9773;47.062;15.446;2023-09-07T08:09:39;4.60;;;4.20;;
19278;SDS011;9773;47.062;15.446;2023-09-07T08:12:05;6.67;;;4.30;;
19278;SDS011;9773;47.062;15.446;2023-09-07T08:14:31;5.50;;;5.10;;
19278;SDS011;9773;47.062;15.446;2023-09-07T08:16:57;5.00;;;4.53;;
19278;SDS011;9773;47.062;15.446;2023-09-07T08:19:23;4.87;;;4.47;;
19278;SDS011;9773;47.062;15.446;2023-09-07T08:21:49;4.07;;;3.77;;
19278;SDS011;9773;47.062;15.446;2023-09-07T08:24:16;3.93;;;3.63;;
19278;SDS011;9773;47.062;15.446;2023-09-07T08:26:43;4.77;;;4.07;;
19278;SDS011;9773;47.062;15.446;2023-09-07T08:29:08;4.87;;;4.47;;
19278;SDS011;9773;47.062;15.446;2023-09-07T08:31:36;7.80;;;4.50;;
19278;SDS011;9773;47.062;15.446;2023-09-07T08:34:04;4.73;;;4.30;;
19278;SDS011;9773;47.062;15.446;2023-09-07T08:36:31;4.77;;;4.37;;
19278;SDS011;9773;47.062;15.446;2023-09-07T08:38:59;4.30;;;4.00;;
19278;SDS011;9773;47.062;15.446;2023-09-07T08:41:37;4.70;;;3.87;;
19278;SDS011;9773;47.062;15.446;2023-09-07T08:44:16;3.90;;;3.60;;
19278;SDS011;9773;47.062;15.446;2023-09-07T08:46:43;4.87;;;4.37;;
19278;SDS011;9773;47.062;15.446;2023-09-07T08:49:12;3.77;;;3.57;;
19278;SDS011;9773;47.062;15.446;2023-09-07T08:51:38;4.67;;;4.10;;
19278;SDS011;9773;47.062;15.446;2023-09-07T08:54:04;3.90;;;3.70;;
19278;SDS011;9773;47.062;15.446;2023-09-07T08:56:32;4.17;;;3.77;;
19278;SDS011;9773;47.062;15.446;2023-09-07T08:58:58;4.83;;;3.83;;
19278;SDS011;9773;47.062;15.446;2023-09-07T09:01:24;4.00;;;3.70;;
19278;SDS011;9773;47.062;15.446;2023-09-07T09:03:50;3.60;;;3.40;;
19278;SDS011;9773;47.062;15.446;2023-09-07T09:06:16;4.13;;;3.87;;
19278;SDS011;9773;47.062;15.446;2023-09-07T09:08:53;4.43;;;3.67;;
19278;SDS011;9773;47.062;15.446;2023-09-07T09:11:21;3.83;;;3.53;;
19278;SDS011;9773;47.062;15.446;2023-09-07T09:13:49;4.00;;;3.70;;
19278;SDS011;9773;47.062;15.446;2023-09-07T09:16:16;3.97;;;3.57;;
19278;SDS011;9773;47.062;15.446;2023-09-07T09:18:53;4.13;;;3.83;;
19278;SDS011;9773;47.062;15.446;2023-09-07T09:21:22;5.20;;;4.17;;
19278;SDS011;9773;47.062;15.446;2023-09-07T09:23:51;5.28;;;4.88;;
19278;SDS011;9773;47.062;15.446;2023-09-07T09:26:18;6.03;;;3.97;;
19278;SDS011;9773;47.062;15.446;2023-09-07T09:28:44;4.50;;;4.10;;
19278;SDS011;9773;47.062;15.446;2023-09-07T09:31:10;5.20;;;4.27;;
19278;SDS011;9773;47.062;15.446;2023-09-07T09:33:40;5.73;;;4.10;;
19278;SDS011;9773;47.062;15.446;2023-09-07T09:36:06;4.70;;;4.00;;
19278;SDS011;9773;47.062;15.446;2023-09-07T09:38:33;4.23;;;3.97;;
19278;SDS011;9773;47.062;15.446;2023-09-07T09:41:00;4.27;;;3.87;;
19278;SDS011;9773;47.062;15.446;2023-09-07T09:43:28;6.07;;;3.90;;
19278;SDS011;9773;47.062;15.446;2023-09-07T09:45:54;4.00;;;3.60;;
19278;SDS011;9773;47.062;15.446;2023-09-07T09:48:21;3.47;;;3.20;;
19278;SDS011;9773;47.062;15.446;2023-09-07T09:50:48;3.35;;;3.15;;
19278;SDS011;9773;47.062;15.446;2023-09-07T09:53:18;3.73;;;3.53;;
19278;SDS011;9773;47.062;15.446;2023-09-07T09:55:46;4.28;;;3.97;;
19278;SDS011;9773;47.062;15.446;2023-09-07T09:58:14;8.35;;;7.47;;
19278;SDS011;9773;47.062;15.446;2023-09-07T10:00:42;4.30;;;3.90;;
19278;SDS011;9773;47.062;15.446;2023-09-07T10:03:10;4.57;;;4.20;;
19278;SDS011;9773;47.062;15.446;2023-09-07T10:05:53;3.33;;;3.13;;
19278;SDS011;9773;47.062;15.446;2023-09-07T10:08:19;3.10;;;2.90;;
19278;SDS011;9773;47.062;15.446;2023-09-07T10:10:47;4.20;;;3.97;;
19278;SDS011;9773;47.062;15.446;2023-09-07T10:13:28;3.20;;;3.00;;
19278;SDS011;9773;47.062;15.446;2023-09-07T10:18:35;3.60;;;3.40;;
19278;SDS011;9773;47.062;15.446;2023-09-07T10:21:02;3.55;;;3.33;;
19278;SDS011;9773;47.062;15.446;2023-09-07T10:23:41;3.40;;;3.08;;
19278;SDS011;9773;47.062;15.446;2023-09-07T10:26:12;3.90;;;3.10;;
19278;SDS011;9773;47.062;15.446;2023-09-07T10:28:39;4.13;;;3.80;;
19278;SDS011;9773;47.062;15.446;2023-09-07T10:31:06;3.58;;;3.38;;
19278;SDS011;9773;47.062;15.446;2023-09-07T10:33:38;3.40;;;3.20;;
19278;SDS011;9773;47.062;15.446;2023-09-07T10:36:04;5.63;;;3.70;;
19278;SDS011;9773;47.062;15.446;2023-09-07T10:38:31;4.50;;;3.73;;
19278;SDS011;9773;47.062;15.446;2023-09-07T10:41:01;3.60;;;3.30;;
19278;SDS011;9773;47.062;15.446;2023-09-07T10:43:29;4.45;;;3.60;;
19278;SDS011;9773;47.062;15.446;2023-09-07T10:45:57;3.60;;;3.30;;
19278;SDS011;9773;47.062;15.446;2023-09-07T10:48:24;3.10;;;2.90;;
19278;SDS011;9773;47.062;15.446;2023-09-07T10:50:50;3.28;;;3.00;;
19278;SDS011;9773;47.062;15.446;2023-09-07T10:53:27;3.50;;;3.20;;
19278;SDS011;9773;47.062;15.446;2023-09-07T10:55:56;3.67;;;3.37;;
19278;SDS011;9773;47.062;15.446;2023-09-07T10:58:27;5.40;;;3.37;;
19278;SDS011;9773;47.062;15.446;2023-09-07T11:00:55;6.38;;;5.72;;
19278;SDS011;9773;47.062;15.446;2023-09-07T11:03:21;4.20;;;3.90;;
19278;SDS011;9773;47.062;15.446;2023-09-07T11:05:47;3.38;;;3.17;;
19278;SDS011;9773;47.062;15.446;2023-09-07T11:08:16;3.15;;;2.95;;
19278;SDS011;9773;47.062;15.446;2023-09-07T11:10:42;3.15;;;2.95;;
19278;SDS011;9773;47.062;15.446;2023-09-07T11:13:08;3.30;;;3.10;;
19278;SDS011;9773;47.062;15.446;2023-09-07T11:15:34;2.80;;;2.70;;
19278;SDS011;9773;47.062;15.446;2023-09-07T11:18:04;3.22;;;3.00;;
19278;SDS011;9773;47.062;15.446;2023-09-07T11:20:34;3.47;;;3.17;;
19278;SDS011;9773;47.062;15.446;2023-09-07T11:23:01;3.15;;;2.95;;
19278;SDS011;9773;47.062;15.446;2023-09-07T11:25:36;3.00;;;2.80;;
19278;SDS011;9773;47.062;15.446;2023-09-07T11:28:04;4.00;;;3.03;;
19278;SDS011;9773;47.062;15.446;2023-09-07T11:30:30;3.58;;;3.38;;
19278;SDS011;9773;47.062;15.446;2023-09-07T11:33:06;3.60;;;3.33;;
19278;SDS011;9773;47.062;15.446;2023-09-07T11:35:33;3.55;;;3.25;;
19278;SDS011;9773;47.062;15.446;2023-09-07T11:38:03;3.47;;;3.28;;
19278;SDS011;9773;47.062;15.446;2023-09-07T11:40:31;3.17;;;2.97;;
19278;SDS011;9773;47.062;15.446;2023-09-07T11:42:57;2.92;;;2.78;;
19278;SDS011;9773;47.062;15.446;2023-09-07T11:45:23;3.05;;;2.80;;
19278;SDS011;9773;47.062;15.446;2023-09-07T11:47:49;3.35;;;3.15;;
19278;SDS011;9773;47.062;15.446;2023-09-07T11:50:18;2.88;;;2.78;;
19278;SDS011;9773;47.062;15.446;2023-09-07T11:52:44;3.83;;;3.40;;
19278;SDS011;9773;47.062;15.446;2023-09-07T11:55:10;3.20;;;3.00;;
19278;SDS011;9773;47.062;15.446;2023-09-07T11:57:38;3.35;;;3.05;;
19278;SDS011;9773;47.062;15.446;2023-09-07T12:00:06;2.97;;;2.80;;
19278;SDS011;9773;47.062;15.446;2023-09-07T12:02:34;5.65;;;5.15;;
19278;SDS011;9773;47.062;15.446;2023-09-07T12:05:00;3.85;;;3.55;;
19278;SDS011;9773;47.062;15.446;2023-09-07T12:07:28;3.92;;;3.63;;
19278;SDS011;9773;47.062;15.446;2023-09-07T12:09:54;4.30;;;3.90;;
19278;SDS011;9773;47.062;15.446;2023-09-07T12:12:22;4.32;;;3.35;;
19278;SDS011;9773;47.062;15.446;2023-09-07T12:14:48;3.55;;;3.35;;
19278;SDS011;9773;47.062;15.446;2023-09-07T12:17:14;3.60;;;3.38;;
19278;SDS011;9773;47.062;15.446;2023-09-07T12:19:40;3.38;;;3.17;;
19278;SDS011;9773;47.062;15.446;2023-09-07T12:22:10;3.72;;;3.17;;
19278;SDS011;9773;47.062;15.446;2023-09-07T12:24:37;3.25;;;3.05;;
19278;SDS011;9773;47.062;15.446;2023-09-07T12:27:02;3.25;;;3.05;;
19278;SDS011;9773;47.062;15.446;2023-09-07T12:29:29;7.30;;;6.55;;
19278;SDS011;9773;47.062;15.446;2023-09-07T12:31:54;4.40;;;4.00;;
19278;SDS011;9773;47.062;15.446;2023-09-07T12:34:20;6.78;;;5.10;;
19278;SDS011;9773;47.062;15.446;2023-09-07T12:36:46;5.88;;;4.78;;
19278;SDS011;9773;47.062;15.446;2023-09-07T12:39:13;6.35;;;5.05;;
19278;SDS011;9773;47.062;15.446;2023-09-07T12:41:39;4.30;;;3.88;;
19278;SDS011;9773;47.062;15.446;2023-09-07T12:44:05;3.55;;;3.35;;
19278;SDS011;9773;47.062;15.446;2023-09-07T12:46:31;4.10;;;3.20;;
19278;SDS011;9773;47.062;15.446;2023-09-07T12:48:57;4.70;;;3.40;;
19278;SDS011;9773;47.062;15.446;2023-09-07T12:51:23;3.05;;;2.92;;
19278;SDS011;9773;47.062;15.446;2023-09-07T12:53:48;3.35;;;3.10;;
19278;SDS011;9773;47.062;15.446;2023-09-07T12:56:14;3.53;;;3.33;;
19278;SDS011;9773;47.062;15.446;2023-09-07T12:58:41;3.33;;;3.13;;
19278;SDS011;9773;47.062;15.446;2023-09-07T13:01:08;3.20;;;3.00;;
19278;SDS011;9773;47.062;15.446;2023-09-07T13:03:39;3.65;;;3.15;;
19278;SDS011;9773;47.062;15.446;2023-09-07T13:06:04;2.97;;;2.78;;
19278;SDS011;9773;47.062;15.446;2023-09-07T13:08:30;3.30;;;3.00;;
19278;SDS011;9773;47.062;15.446;2023-09-07T13:10:56;3.25;;;3.05;;
19278;SDS011;9773;47.062;15.446;2023-09-07T13:13:24;3.42;;;3.22;;
19278;SDS011;9773;47.062;15.446;2023-09-07T13:15:57;4.25;;;2.92;;
19278;SDS011;9773;47.062;15.446;2023-09-07T13:18:23;3.50;;;3.20;;
19278;SDS011;9773;47.062;15.446;2023-09-07T13:20:50;3.72;;;3.00;;
19278;SDS011;9773;47.062;15.446;2023-09-07T13:23:18;3.80;;;3.50;;
19278;SDS011;9773;47.062;15.446;2023-09-07T13:25:44;3.55;;;3.35;;
19278;SDS011;9773;47.062;15.446;2023-09-07T13:28:10;3.25;;;2.97;;
19278;SDS011;9773;47.062;15.446;2023-09-07T13:30:35;3.80;;;3.50;;
19278;SDS011;9773;47.062;15.446;2023-09-07T13:33:01;3.20;;;3.00;;
19278;SDS011;9773;47.062;15.446;2023-09-07T13:35:27;4.97;;;3.15;;
19278;SDS011;9773;47.062;15.446;2023-09-07T13:37:53;3.00;;;2.80;;
19278;SDS011;9773;47.062;15.446;2023-09-07T13:40:18;3.35;;;3.15;;
19278;SDS011;9773;47.062;15.446;2023-09-07T13:42:47;4.85;;;3.78;;
19278;SDS011;9773;47.062;15.446;2023-09-07T13:45:13;3.40;;;3.20;;
19278;SDS011;9773;47.062;15.446;2023-09-07T13:47:39;4.00;;;3.70;;
19278;SDS011;9773;47.062;15.446;2023-09-07T13:50:05;3.03;;;2.88;;
19278;SDS011;9773;47.062;15.446;2023-09-07T13:52:31;5.50;;;3.65;;
19278;SDS011;9773;47.062;15.446;2023-09-07T13:54:57;3.38;;;3.17;;
19278;SDS011;9773;47.062;15.446;2023-09-07T13:57:22;3.60;;;3.40;;
19278;SDS011;9773;47.062;15.446;2023-09-07T13:59:48;3.63;;;3.33;;
19278;SDS011;9773;47.062;15.446;2023-09-07T14:02:14;6.13;;;3.45;;
19278;SDS011;9773;47.062;15.446;2023-09-07T14:04:40;3.60;;;3.30;;
19278;SDS011;9773;47.062;15.446;2023-09-07T14:07:06;3.00;;;2.80;;
19278;SDS011;9773;47.062;15.446;2023-09-07T14:09:31;3.40;;;3.20;;
19278;SDS011;9773;47.062;15.446;2023-09-07T14:11:58;3.20;;;3.00;;
19278;SDS011;9773;47.062;15.446;2023-09-07T14:14:24;3.80;;;3.50;;
19278;SDS011;9773;47.062;15.446;2023-09-07T14:16:51;3.40;;;3.20;;
19278;SDS011;9773;47.062;15.446;2023-09-07T14:19:22;4.03;;;3.65;;
19278;SDS011;9773;47.062;15.446;2023-09-07T14:21:47;3.47;;;3.20;;
19278;SDS011;9773;47.062;15.446;2023-09-07T14:24:13;3.35;;;3.15;;
19278;SDS011;9773;47.062;15.446;2023-09-07T14:26:39;2.92;;;2.83;;
19278;SDS011;9773;47.062;15.446;2023-09-07T14:29:04;3.05;;;2.95;;
19278;SDS011;9773;47.062;15.446;2023-09-07T14:31:30;3.25;;;3.05;;
19278;SDS011;9773;47.062;15.446;2023-09-07T14:33:56;4.70;;;3.65;;
19278;SDS011;9773;47.062;15.446;2023-09-07T14:36:22;4.00;;;3.20;;
19278;SDS011;9773;47.062;15.446;2023-09-07T14:38:48;3.47;;;3.17;;
19278;SDS011;9773;47.062;15.446;2023-09-07T14:41:14;3.25;;;3.05;;
19278;SDS011;9773;47.062;15.446;2023-09-07T14:43:44;3.40;;;3.20;;
19278;SDS011;9773;47.062;15.446;2023-09-07T14:46:11;3.92;;;3.63;;
19278;SDS011;9773;47.062;15.446;2023-09-07T14:48:37;3.30;;;3.10;;